createdAt,value
2022-09-24T00:03:06.578Z,9.97
2022-09-24T00:08:09.795Z,9.94
2022-09-24T00:13:13.369Z,9.91
2022-09-24T00:18:16.580Z,10.02
2022-09-24T00:23:25.181Z,10.07
2022-09-24T00:28:28.378Z,10.11
2022-09-24T00:33:33.354Z,10.11
2022-09-24T00:38:36.597Z,10.21
2022-09-24T00:43:39.869Z,10.28
2022-09-24T00:48:43.418Z,10.27
2022-09-24T00:53:46.621Z,10.24
2022-09-24T00:58:51.482Z,10.20
2022-09-24T01:03:58.146Z,10.11
2022-09-24T01:09:01.458Z,10.01
2022-09-24T01:14:04.842Z,9.97
2022-09-24T01:19:09.301Z,9.92
2022-09-24T01:24:12.766Z,9.91
2022-09-24T01:29:16.354Z,9.94
2022-09-24T01:34:19.609Z,9.88
2022-09-24T01:39:22.872Z,9.80
2022-09-24T01:44:26.460Z,9.72
2022-09-24T01:49:30.408Z,9.60
2022-09-24T01:54:34.112Z,9.59
2022-09-24T01:59:37.422Z,9.63
2022-09-24T02:04:41.882Z,9.70
2022-09-24T02:09:45.173Z,9.67
2022-09-24T02:14:48.620Z,9.66
2022-09-24T02:19:51.829Z,9.60
2022-09-24T02:24:55.022Z,9.51
2022-09-24T02:29:58.197Z,9.48
2022-09-24T02:35:02.810Z,9.46
2022-09-24T02:40:06.148Z,9.44
2022-09-24T02:45:09.922Z,9.47
2022-09-24T02:50:13.195Z,9.52
2022-09-24T02:55:16.389Z,9.48
2022-09-24T03:00:21.156Z,9.51
2022-09-24T03:05:24.417Z,9.69
2022-09-24T03:10:27.673Z,9.68
2022-09-24T03:15:30.957Z,9.77
2022-09-24T03:20:34.145Z,9.84
2022-09-24T03:25:37.303Z,9.96
2022-09-24T03:30:58.133Z,10.07
2022-09-24T03:36:01.376Z,10.15
2022-09-24T03:41:04.688Z,10.20
2022-09-24T03:46:08.352Z,10.25
2022-09-24T03:51:11.544Z,10.36
2022-09-24T03:56:14.709Z,10.42
2022-09-24T04:01:21.195Z,10.43
2022-09-24T04:06:27.035Z,10.45
2022-09-24T04:11:30.389Z,10.53
2022-09-24T04:16:33.863Z,10.60
2022-09-24T04:21:37.161Z,10.66
2022-09-24T04:26:40.307Z,10.70
2022-09-24T04:31:44.386Z,10.71
2022-09-24T04:36:47.684Z,10.76
2022-09-24T04:41:50.849Z,10.77
2022-09-24T04:46:57.472Z,10.88
2022-09-24T04:52:01.046Z,10.92
2022-09-24T04:57:04.273Z,11.00
2022-09-24T05:02:09.793Z,10.96
2022-09-24T05:07:13.154Z,11.00
2022-09-24T05:12:16.375Z,10.93
2022-09-24T05:17:20.461Z,10.87
2022-09-24T05:22:23.618Z,10.83
2022-09-24T05:27:26.798Z,10.87
2022-09-24T05:32:30.420Z,11.01
2022-09-24T05:37:33.599Z,11.24
2022-09-24T05:42:36.772Z,11.51
2022-09-24T05:47:39.947Z,11.64
2022-09-24T05:52:43.078Z,11.76
2022-09-24T05:57:46.223Z,12.04
2022-09-24T06:02:50.599Z,12.37
2022-09-24T06:07:53.812Z,12.69
2022-09-24T06:12:59.075Z,12.84
2022-09-24T06:18:01.759Z,12.90
2022-09-24T06:23:04.427Z,13.23
2022-09-24T06:28:07.656Z,13.48
2022-09-24T06:33:10.826Z,13.84
2022-09-24T06:38:13.533Z,14.19
2022-09-24T06:43:18.773Z,14.58
2022-09-24T06:48:22.541Z,14.56
2022-09-24T06:53:26.404Z,14.41
2022-09-24T06:58:30.053Z,14.54
2022-09-24T07:03:32.761Z,14.45
2022-09-24T07:08:35.932Z,14.84
2022-09-24T07:13:39.156Z,15.02
2022-09-24T07:18:42.356Z,14.49
2022-09-24T07:23:45.505Z,14.44
2022-09-24T07:28:48.163Z,14.47
2022-09-24T07:33:51.751Z,14.47
2022-09-24T07:38:54.839Z,14.52
2022-09-24T07:43:57.506Z,14.40
2022-09-24T07:49:00.183Z,14.25
2022-09-24T07:54:03.011Z,13.95
2022-09-24T07:59:06.603Z,13.75
2022-09-24T08:04:09.541Z,13.50
2022-09-24T08:09:12.420Z,13.21
2022-09-24T08:14:15.247Z,12.88
2022-09-24T08:19:18.118Z,12.51
2022-09-24T08:24:20.956Z,12.37
2022-09-24T08:29:23.762Z,12.42
2022-09-24T08:34:26.954Z,12.58
2022-09-24T08:39:29.612Z,12.84
2022-09-24T08:44:50.096Z,12.93
2022-09-24T08:49:52.861Z,13.20
2022-09-24T08:54:55.577Z,13.42
2022-09-24T08:59:58.902Z,13.56
2022-09-24T09:05:02.338Z,14.17
2022-09-24T09:10:05.807Z,14.42
2022-09-24T09:15:09.259Z,14.68
2022-09-24T09:20:12.132Z,14.84
2022-09-24T09:25:18.742Z,15.03
2022-09-24T09:30:21.983Z,15.29
2022-09-24T09:35:24.692Z,15.45
2022-09-24T09:40:31.644Z,15.44
2022-09-24T09:45:34.851Z,15.05
2022-09-24T09:50:37.547Z,15.14
2022-09-24T09:55:40.359Z,14.71
2022-09-24T10:00:44.010Z,14.39
2022-09-24T10:05:46.693Z,14.36
2022-09-24T10:10:49.583Z,14.22
2022-09-24T10:15:52.447Z,14.22
2022-09-24T10:20:56.809Z,14.15
2022-09-24T10:25:59.980Z,14.17
2022-09-24T10:31:02.686Z,14.50
2022-09-24T10:36:05.637Z,14.76
2022-09-24T10:41:08.346Z,14.57
2022-09-24T10:46:12.306Z,14.41
2022-09-24T10:51:15.143Z,13.97
2022-09-24T10:56:17.946Z,13.77
2022-09-24T11:01:20.853Z,13.66
2022-09-24T11:06:23.777Z,13.73
2022-09-24T11:11:26.668Z,13.82
2022-09-24T11:16:29.500Z,13.74
2022-09-24T11:21:32.370Z,13.78
2022-09-24T11:26:35.579Z,13.93
2022-09-24T11:31:38.482Z,14.01
2022-09-24T11:36:41.279Z,14.25
2022-09-24T11:41:44.205Z,14.48
2022-09-24T11:46:47.519Z,14.45
2022-09-24T11:51:50.893Z,14.59
2022-09-24T11:56:53.823Z,14.71
2022-09-24T12:01:56.747Z,14.94
2022-09-24T12:07:00.262Z,15.22
2022-09-24T12:12:02.986Z,14.91
2022-09-24T12:17:05.881Z,14.84
2022-09-24T12:22:08.803Z,15.28
2022-09-24T12:27:11.520Z,15.24
2022-09-24T12:32:32.014Z,15.35
2022-09-24T12:37:35.146Z,15.76
2022-09-24T12:42:38.063Z,15.60
2022-09-24T12:47:41.401Z,15.70
2022-09-24T12:52:44.611Z,16.15
2022-09-24T12:57:47.422Z,16.33
2022-09-24T13:02:50.799Z,16.73
2022-09-24T13:07:54.281Z,16.99
2022-09-24T13:12:57.574Z,16.90
2022-09-24T13:18:00.801Z,16.56
2022-09-24T13:23:04.069Z,16.70
2022-09-24T13:28:07.242Z,17.33
2022-09-24T13:33:10.838Z,17.35
2022-09-24T13:38:14.238Z,17.05
2022-09-24T13:43:17.543Z,16.71
2022-09-24T13:48:21.090Z,16.62
2022-09-24T13:53:24.309Z,16.44
2022-09-24T13:58:27.658Z,16.46
2022-09-24T14:03:31.058Z,16.75
2022-09-24T14:08:35.471Z,16.60
2022-09-24T14:13:45.995Z,16.49
2022-09-24T14:18:49.320Z,16.48
2022-09-24T14:23:52.540Z,16.29
2022-09-24T14:28:55.699Z,16.25
2022-09-24T14:33:58.871Z,16.06
2022-09-24T14:39:02.061Z,16.08
2022-09-24T14:44:05.303Z,16.22
2022-09-24T14:49:08.549Z,16.26
2022-09-24T14:54:11.822Z,15.92
2022-09-24T14:59:15.530Z,15.79
2022-09-24T15:04:19.519Z,15.50
2022-09-24T15:09:24.059Z,15.29
2022-09-24T15:14:27.798Z,15.17
2022-09-24T15:19:33.029Z,15.02
2022-09-24T15:24:36.278Z,14.54
2022-09-24T15:29:39.454Z,14.18
2022-09-24T15:34:42.642Z,13.93
2022-09-24T15:39:49.280Z,13.76
2022-09-24T15:44:52.509Z,13.61
2022-09-24T15:49:55.806Z,13.53
2022-09-24T15:54:59.016Z,13.40
2022-09-24T16:00:02.234Z,13.35
2022-09-24T16:05:05.650Z,13.32
2022-09-24T16:10:08.820Z,13.35
2022-09-24T16:15:12.225Z,13.32
2022-09-24T16:20:15.586Z,13.34
2022-09-24T16:25:18.906Z,13.24
2022-09-24T16:30:22.150Z,13.25
2022-09-24T16:35:25.413Z,13.12
2022-09-24T16:40:28.799Z,13.08
2022-09-24T16:45:32.021Z,13.08
2022-09-24T16:50:35.362Z,12.97
2022-09-24T16:55:39.006Z,12.83
2022-09-24T17:00:42.417Z,12.81
2022-09-24T17:05:45.704Z,12.77
2022-09-24T17:10:51.366Z,12.71
2022-09-24T17:15:55.395Z,12.75
2022-09-24T17:20:58.562Z,12.79
2022-09-24T17:26:02.887Z,12.66
2022-09-24T17:31:06.151Z,12.68
2022-09-24T17:36:09.507Z,12.69
2022-09-24T17:41:13.046Z,12.70
2022-09-24T17:46:16.287Z,12.62
2022-09-24T17:51:20.452Z,12.68
2022-09-24T17:56:24.655Z,12.70
2022-09-24T18:01:28.902Z,12.72
2022-09-24T18:06:33.259Z,12.65
2022-09-24T18:11:36.539Z,12.67
2022-09-24T18:16:39.712Z,12.58
2022-09-24T18:21:42.906Z,12.56
2022-09-24T18:26:51.273Z,12.55
2022-09-24T18:31:54.964Z,12.53
2022-09-24T18:36:58.143Z,12.65
2022-09-24T18:42:01.441Z,12.66
2022-09-24T18:47:06.137Z,12.62
2022-09-24T18:52:09.305Z,12.59
2022-09-24T18:57:12.528Z,12.60
2022-09-24T19:02:15.769Z,12.59
2022-09-24T19:07:19.180Z,12.54
2022-09-24T19:12:22.352Z,12.47
2022-09-24T19:17:25.614Z,12.59
2022-09-24T19:22:28.857Z,12.69
2022-09-24T19:27:33.178Z,12.66
2022-09-24T19:32:38.909Z,12.60
2022-09-24T19:37:42.229Z,12.63
2022-09-24T19:42:46.019Z,12.60
2022-09-24T19:47:51.126Z,12.65
2022-09-24T19:52:55.945Z,12.66
2022-09-24T19:58:03.306Z,12.73
2022-09-24T20:03:06.564Z,12.70
2022-09-24T20:08:11.305Z,12.67
2022-09-24T20:13:17.868Z,12.73
2022-09-24T20:18:21.568Z,12.65
2022-09-24T20:23:25.333Z,12.64
2022-09-24T20:28:28.485Z,12.68
2022-09-24T20:33:32.519Z,12.65
2022-09-24T20:38:35.761Z,12.61
2022-09-24T20:43:48.954Z,12.55
2022-09-24T20:48:52.270Z,12.55
2022-09-24T20:53:55.503Z,12.47
2022-09-24T20:58:58.713Z,12.45
2022-09-24T21:04:02.564Z,12.54
2022-09-24T21:09:08.046Z,12.57
2022-09-24T21:14:11.792Z,12.57
2022-09-24T21:19:15.460Z,12.54
2022-09-24T21:24:18.634Z,12.48
2022-09-24T21:29:21.988Z,12.47
2022-09-24T21:34:25.884Z,12.53
2022-09-24T21:39:29.052Z,12.51
2022-09-24T21:44:34.168Z,12.49
2022-09-24T21:49:37.764Z,12.38
2022-09-24T21:54:41.045Z,12.41
2022-09-24T22:00:10.055Z,12.40
2022-09-24T22:05:16.712Z,12.34
2022-09-24T22:10:20.153Z,12.34
2022-09-24T22:15:23.421Z,12.31
2022-09-24T22:20:26.976Z,12.24
2022-09-24T22:25:31.498Z,12.23
2022-09-24T22:30:35.085Z,12.10
2022-09-24T22:35:50.326Z,11.99
2022-09-24T22:40:53.668Z,11.97
2022-09-24T22:45:57.083Z,11.89
2022-09-24T22:51:00.653Z,11.77
2022-09-24T22:56:03.980Z,11.66
2022-09-24T23:01:07.590Z,11.51
2022-09-24T23:06:18.980Z,11.29
2022-09-24T23:11:22.226Z,11.10
2022-09-24T23:16:25.878Z,10.90
2022-09-24T23:21:31.282Z,10.76
2022-09-24T23:26:34.656Z,10.73
2022-09-24T23:31:38.195Z,10.73
2022-09-24T23:36:41.441Z,10.64
2022-09-24T23:41:45.362Z,10.57
2022-09-24T23:46:49.222Z,10.53
2022-09-24T23:51:53.417Z,10.41
2022-09-24T23:56:57.251Z,10.32
